Record high temperature 44.9°C Record low temperature -0.3°C Record high gust 87.3 km/h Record high average 77.7 km/h Record daily rain 484.8 mm Record low windchill -5.8°C Record high barometer 1043.6 hPa Record low barometer 978.0 hPa
Daily high pressure 1014.7 mb Daily low pressure 1014.1 mb Daily low windchill 20.2°C Daily high heat index 20.4°C Daily high gust speed 25.9 kmh NNE Daily high average speed 18.3 kmh NE
Estación de MeteoMurcia.com -------- Murcia-Puente Tocinos
Ultima grabación a: 00:50 Data: 24 April 2018, time of next update: 01:00
Tiempo actualClear/Night Temperatura actual20.3°C (68.5°F) (Indice de Calor20.3°C ), Temperatura aparente 18.7°C
Temperatura máxima (desde medianoche)20.4°C at: 00:00 Temperatura mínima (desde medianoche)20.2°C at: 00:13
Velocidad media del viento (diez minutos)12.0 kmh (6.5 kts) Dirección del viento (diez minutos)NNE (29°)
Indice de Calor20.3°C ráfagas maxima (última hora)28.1 kmh (15.2 kts) at: 23:50
ráfagas maxima (desde medianoche)25.9 kmh (14.0 kts) at: 00:26 Maximo media de un minuto (desde medianoche)18.3 kmh (9.9 kts) at: 00:02
Lluvia (última hora)0.0 mm Lluvia (desde medianoche)0.0 mm (0.00 in.)---
Lluvia Este mes 3.3 mm (0.13 in.) Lluvia Hasta la fecha este año89.2 mm (3.51 in.)
Lluvia máxima por minuto (última hora)0.0 mm/min Lluvia maxima por hora (últimas 6 horas)0.0 mm/hora
Lluvia de ayer 0.0 mm Punto de rocío 8.0°C (Wet Bulb :13.9°C )
Humedad 45 %, Humidex 20.7°C Barómetro corregido a msl1014.7 mb
cambio de presión+0.6 mb (última hora) Tendencia (últimas 1 hora)ELEVANDOSE SLOWLY
cambio de presión (últimas 12 horas)-1.2 mb cambio de presión (últimas 6 horas)+1.4 mb
Current Temp. Interna 27.6°C
Current Hum. Interna 36%


Última imagen cámara web


Weather report/warning/Metars

Alicante / El Altet, Spain (LEAL) 38-17N 000-33W 31M
Apr 23, 2018 - 06:30 PM EDT / 2018.04.23 2230 UTC
Wind: from the NE (040 degrees) at 10 MPH (9 KT) (direction variable):0
Visibility: greater than 7 mile(s):0
Temperature: 69 F (21 C)
Dew Point: 42 F (6 C)
Relative Humidity: 37%
Pressure (altimeter): 30.00 in. Hg (1016 hPa)
ob: LEAL 232230Z 04009KT 020V080 CAVOK 21/06 Q1016 NOSIG
cycle: 22
Murcia / San Javier, Spain (LELC) 37-47N 000-48W 3M
Apr 23, 2018 - 05:00 PM EDT / 2018.04.23 2100 UTC
Wind: from the NE (040 degrees) at 23 MPH (20 KT) gusting to 35 MPH (30 KT):0
Visibility: greater than 7 mile(s):0
Temperature: 66 F (19 C)
Dew Point: 55 F (13 C)
Relative Humidity: 68%
Pressure (altimeter): 30.00 in. Hg (1016 hPa)
ob: LELC 232100Z 04020G30KT CAVOK 19/13 Q1016 NOSIG
cycle: 21
Murcia / Alcantarilla, Spain (LERI) 37-57N 001-14W 75M
Apr 23, 2018 - 02:00 PM EDT / 2018.04.23 1800 UTC
Wind: from the E (080 degrees) at 15 MPH (13 KT) (direction variable):0
Visibility: greater than 7 mile(s):0
Temperature: 71 F (22 C)
Dew Point: 44 F (7 C)
Relative Humidity: 37%
Pressure (altimeter): 29.94 in. Hg (1014 hPa)
ob: LERI 231800Z 08013KT 050V110 CAVOK 22/07 Q1014 NOSIG
cycle: 18
Gerona / Costa Brava, Spain (LEGE) 41-54N 002-46E 129M
Apr 23, 2018 - 06:30 PM EDT / 2018.04.23 2230 UTC
Wind: Calm:0
Visibility: greater than 7 mile(s):0
Temperature: 59 F (15 C)
Dew Point: 53 F (12 C)
Relative Humidity: 82%
Pressure (altimeter): 30.09 in. Hg (1019 hPa)
ob: LEGE 232230Z 00000KT CAVOK 15/12 Q1019
cycle: 22
Madri-Colmenar, Spain (LECV) 40-39N 003-44W
Apr 23, 2018 - 02:00 PM EDT / 2018.04.23 1800 UTC
Wind: from the ENE (060 degrees) at 7 MPH (6 KT):0
Visibility: greater than 7 mile(s):0
Sky conditions: mostly clear
Temperature: 68 F (20 C)
Dew Point: 48 F (9 C)
Relative Humidity: 49%
Pressure (altimeter): 30.09 in. Hg (1019 hPa)
ob: LECV 231800Z 06006KT 9999 FEW060 20/09 Q1019
cycle: 18
Asturias / Aviles, Spain (LEAS) 43-33N 006-02W 130M
Apr 23, 2018 - 06:30 PM EDT / 2018.04.23 2230 UTC
Wind: from the E (090 degrees) at 5 MPH (4 KT) (direction variable):0
Visibility: 2 mile(s):0
Sky conditions: overcast
Weather: mist
Temperature: 55 F (13 C)
Dew Point: 55 F (13 C)
Relative Humidity: 100%
Pressure (altimeter): 30.15 in. Hg (1021 hPa)
ob: LEAS 232230Z AUTO 09004KT 050V120 4000 BR BKN005/// OVC009/// 13/13 Q1021
cycle: 22
Almeria / Aeropuerto, Spain (LEAM) 36-51N 002-23W 21M
Apr 23, 2018 - 06:30 PM EDT / 2018.04.23 2230 UTC
Wind: from the N (010 degrees) at 12 MPH (10 KT) (direction variable):0
Visibility: greater than 7 mile(s):0
Temperature: 77 F (25 C)
Dew Point: 37 F (3 C)
Relative Humidity: 23%
Pressure (altimeter): 29.83 in. Hg (1010 hPa)
ob: LEAM 232230Z AUTO 01010KT 340V070 9999 NCD 25/03 Q1010
cycle: 22
Pamplona / Noain, Spain (LEPP) 42-46N 001-38W 453M
Apr 23, 2018 - 06:30 PM EDT / 2018.04.23 2230 UTC
Wind: Calm:0
Visibility: 5 mile(s):0
Temperature: 53 F (12 C)
Dew Point: 51 F (11 C)
Relative Humidity: 93%
Pressure (altimeter): 30.15 in. Hg (1021 hPa)
ob: LEPP 232230Z AUTO 00000KT 9000 NCD 12/11 Q1021
cycle: 22
Badajoz / Talavera La Real, Spain (LEBZ) 38-53N 006-49W 192M
Apr 23, 2018 - 03:00 PM EDT / 2018.04.23 1900 UTC
Wind: from the NE (040 degrees) at 7 MPH (6 KT):0
Visibility: greater than 7 mile(s):0
Sky conditions: mostly clear
Temperature: 73 F (23 C)
Dew Point: 59 F (15 C)
Relative Humidity: 60%
Pressure (altimeter): 29.88 in. Hg (1012 hPa)
ob: LEBZ 231900Z 04006KT 9999 FEW045 23/15 Q1012
cycle: 19
Albacete / Los Llanos, Spain (LEAB) 38-57N 001-51W 704M
Apr 23, 2018 - 06:20 PM EDT / 2018.04.23 2220 UTC
Wind: from the ESE (120 degrees) at 12 MPH (10 KT):0
Visibility: greater than 7 mile(s):0
Temperature: 59 F (15 C)
Dew Point: 39 F (4 C)
Relative Humidity: 47%
Pressure (altimeter): 30.09 in. Hg (1019 hPa)
ob: LEAB 232220Z 12010KT CAVOK 15/04 Q1019 NOSIG
cycle: 22



La informacion se graba a intervalos de 2 minutos, pero hay info grabada cada minuto. Optimizado para 800*600 y Color verdadero. Use el boton de

Use the RECARGA en su navegador para recojer la ulima info.

Clicar aquí para regarga diaria de medias/extremas del mes














Created by "Weather Display" software version 10.37S at this start time/date 18:04:04 22/04/2018

La estación de MeteoMurcia.com, publica sus datos en los siguientes proyectos:

Meteoclimatic www.awekas.at

W3Counter
Web Analytics